sensor_id;sensor_type;location;lat;lon;timestamp;P1;durP1;ratioP1;P2;durP2;ratioP2
55989;SDS011;41875;55.806;38.082;2022-10-31T00:01:31;1.05;;;0.57;;
55989;SDS011;41875;55.806;38.082;2022-10-31T00:04:01;0.75;;;0.63;;
55989;SDS011;41875;55.806;38.082;2022-10-31T00:06:30;5.40;;;0.77;;
55989;SDS011;41875;55.806;38.082;2022-10-31T00:08:59;0.50;;;0.50;;
55989;SDS011;41875;55.806;38.082;2022-10-31T00:11:30;0.55;;;0.55;;
55989;SDS011;41875;55.806;38.082;2022-10-31T00:16:27;2.05;;;0.68;;
55989;SDS011;41875;55.806;38.082;2022-10-31T00:18:58;0.63;;;0.43;;
55989;SDS011;41875;55.806;38.082;2022-10-31T00:21:28;1.30;;;0.63;;
55989;SDS011;41875;55.806;38.082;2022-10-31T00:23:58;1.67;;;0.70;;
55989;SDS011;41875;55.806;38.082;2022-10-31T00:26:30;1.00;;;0.60;;
55989;SDS011;41875;55.806;38.082;2022-10-31T00:28:59;0.73;;;0.40;;
55989;SDS011;41875;55.806;38.082;2022-10-31T00:31:28;0.77;;;0.50;;
55989;SDS011;41875;55.806;38.082;2022-10-31T00:33:58;1.42;;;0.70;;
55989;SDS011;41875;55.806;38.082;2022-10-31T00:36:26;3.30;;;0.60;;
55989;SDS011;41875;55.806;38.082;2022-10-31T00:38:55;0.75;;;0.70;;
55989;SDS011;41875;55.806;38.082;2022-10-31T00:41:24;0.50;;;0.50;;
55989;SDS011;41875;55.806;38.082;2022-10-31T00:46:21;0.68;;;0.50;;
55989;SDS011;41875;55.806;38.082;2022-10-31T00:48:50;1.42;;;0.70;;
55989;SDS011;41875;55.806;38.082;2022-10-31T00:51:19;1.83;;;0.60;;
55989;SDS011;41875;55.806;38.082;2022-10-31T00:53:48;0.50;;;0.50;;
55989;SDS011;41875;55.806;38.082;2022-10-31T00:58:45;0.50;;;0.40;;
55989;SDS011;41875;55.806;38.082;2022-10-31T01:01:13;3.70;;;0.70;;
55989;SDS011;41875;55.806;38.082;2022-10-31T01:06:12;0.50;;;0.50;;
55989;SDS011;41875;55.806;38.082;2022-10-31T01:08:42;6.20;;;1.65;;
55989;SDS011;41875;55.806;38.082;2022-10-31T01:11:13;3.03;;;0.88;;
55989;SDS011;41875;55.806;38.082;2022-10-31T01:13:45;0.88;;;0.50;;
55989;SDS011;41875;55.806;38.082;2022-10-31T01:16:15;1.17;;;0.60;;
55989;SDS011;41875;55.806;38.082;2022-10-31T01:18:45;1.05;;;0.40;;
55989;SDS011;41875;55.806;38.082;2022-10-31T01:21:15;0.80;;;0.40;;
55989;SDS011;41875;55.806;38.082;2022-10-31T01:23:49;1.20;;;0.82;;
55989;SDS011;41875;55.806;38.082;2022-10-31T01:26:19;1.70;;;0.60;;
55989;SDS011;41875;55.806;38.082;2022-10-31T01:28:49;4.18;;;0.65;;
55989;SDS011;41875;55.806;38.082;2022-10-31T01:31:20;3.70;;;0.68;;
55989;SDS011;41875;55.806;38.082;2022-10-31T01:33:50;0.88;;;0.57;;
55989;SDS011;41875;55.806;38.082;2022-10-31T01:36:20;4.20;;;0.70;;
55989;SDS011;41875;55.806;38.082;2022-10-31T01:38:52;1.13;;;0.60;;
55989;SDS011;41875;55.806;38.082;2022-10-31T01:41:24;3.90;;;0.70;;
55989;SDS011;41875;55.806;38.082;2022-10-31T01:43:55;0.77;;;0.50;;
55989;SDS011;41875;55.806;38.082;2022-10-31T01:46:27;0.82;;;0.45;;
55989;SDS011;41875;55.806;38.082;2022-10-31T01:49:00;0.57;;;0.50;;
55989;SDS011;41875;55.806;38.082;2022-10-31T01:51:34;1.40;;;0.60;;
55989;SDS011;41875;55.806;38.082;2022-10-31T01:54:08;2.53;;;0.80;;
55989;SDS011;41875;55.806;38.082;2022-10-31T01:56:42;0.80;;;0.50;;
55989;SDS011;41875;55.806;38.082;2022-10-31T01:59:17;1.58;;;0.63;;
55989;SDS011;41875;55.806;38.082;2022-10-31T02:01:48;0.40;;;0.40;;
55989;SDS011;41875;55.806;38.082;2022-10-31T02:04:18;0.40;;;0.40;;
55989;SDS011;41875;55.806;38.082;2022-10-31T02:06:51;1.40;;;0.55;;
55989;SDS011;41875;55.806;38.082;2022-10-31T02:09:25;0.85;;;0.55;;
55989;SDS011;41875;55.806;38.082;2022-10-31T02:11:55;0.60;;;0.60;;
55989;SDS011;41875;55.806;38.082;2022-10-31T02:14:28;0.60;;;0.60;;
55989;SDS011;41875;55.806;38.082;2022-10-31T02:16:58;1.05;;;0.70;;
55989;SDS011;41875;55.806;38.082;2022-10-31T02:19:28;1.33;;;0.63;;
55989;SDS011;41875;55.806;38.082;2022-10-31T02:22:05;3.72;;;0.80;;
55989;SDS011;41875;55.806;38.082;2022-10-31T02:24:46;1.15;;;0.60;;
55989;SDS011;41875;55.806;38.082;2022-10-31T02:27:30;2.10;;;0.70;;
55989;SDS011;41875;55.806;38.082;2022-10-31T02:30:12;1.67;;;0.73;;
55989;SDS011;41875;55.806;38.082;2022-10-31T02:32:49;1.38;;;0.90;;
55989;SDS011;41875;55.806;38.082;2022-10-31T02:35:34;2.05;;;0.70;;
55989;SDS011;41875;55.806;38.082;2022-10-31T02:38:13;0.70;;;0.70;;
55989;SDS011;41875;55.806;38.082;2022-10-31T02:40:52;2.58;;;0.85;;
55989;SDS011;41875;55.806;38.082;2022-10-31T02:43:38;1.73;;;0.90;;
55989;SDS011;41875;55.806;38.082;2022-10-31T02:46:13;2.45;;;1.00;;
55989;SDS011;41875;55.806;38.082;2022-10-31T02:48:49;1.85;;;0.80;;
55989;SDS011;41875;55.806;38.082;2022-10-31T02:51:20;3.47;;;0.80;;
55989;SDS011;41875;55.806;38.082;2022-10-31T02:53:49;3.13;;;1.02;;
55989;SDS011;41875;55.806;38.082;2022-10-31T02:56:18;3.70;;;1.08;;
55989;SDS011;41875;55.806;38.082;2022-10-31T02:58:48;1.73;;;0.95;;
55989;SDS011;41875;55.806;38.082;2022-10-31T03:01:24;2.55;;;0.95;;
55989;SDS011;41875;55.806;38.082;2022-10-31T03:04:07;3.35;;;1.00;;
55989;SDS011;41875;55.806;38.082;2022-10-31T03:06:54;1.65;;;0.98;;
55989;SDS011;41875;55.806;38.082;2022-10-31T03:09:33;1.98;;;0.80;;
55989;SDS011;41875;55.806;38.082;2022-10-31T03:14:43;3.75;;;1.20;;
55989;SDS011;41875;55.806;38.082;2022-10-31T03:17:23;2.00;;;0.80;;
55989;SDS011;41875;55.806;38.082;2022-10-31T03:20:00;1.58;;;0.98;;
55989;SDS011;41875;55.806;38.082;2022-10-31T03:22:32;0.85;;;0.75;;
55989;SDS011;41875;55.806;38.082;2022-10-31T03:25:02;2.92;;;1.08;;
55989;SDS011;41875;55.806;38.082;2022-10-31T03:27:34;1.00;;;0.68;;
55989;SDS011;41875;55.806;38.082;2022-10-31T03:30:06;3.65;;;1.02;;
55989;SDS011;41875;55.806;38.082;2022-10-31T03:32:51;1.20;;;0.95;;
55989;SDS011;41875;55.806;38.082;2022-10-31T03:35:24;1.95;;;1.00;;
55989;SDS011;41875;55.806;38.082;2022-10-31T03:37:55;1.13;;;0.77;;
55989;SDS011;41875;55.806;38.082;2022-10-31T03:40:33;0.90;;;0.80;;
55989;SDS011;41875;55.806;38.082;2022-10-31T03:43:06;2.42;;;1.00;;
55989;SDS011;41875;55.806;38.082;2022-10-31T03:45:39;1.20;;;0.82;;
55989;SDS011;41875;55.806;38.082;2022-10-31T03:48:12;2.85;;;1.05;;
55989;SDS011;41875;55.806;38.082;2022-10-31T03:50:45;2.78;;;0.80;;
55989;SDS011;41875;55.806;38.082;2022-10-31T03:53:22;2.90;;;0.90;;
55989;SDS011;41875;55.806;38.082;2022-10-31T03:55:56;3.13;;;1.10;;
55989;SDS011;41875;55.806;38.082;2022-10-31T03:58:32;2.20;;;0.68;;
55989;SDS011;41875;55.806;38.082;2022-10-31T04:01:06;1.35;;;0.70;;
55989;SDS011;41875;55.806;38.082;2022-10-31T04:03:39;2.13;;;0.82;;
55989;SDS011;41875;55.806;38.082;2022-10-31T04:06:12;1.77;;;0.88;;
55989;SDS011;41875;55.806;38.082;2022-10-31T04:08:48;1.13;;;0.70;;
55989;SDS011;41875;55.806;38.082;2022-10-31T04:11:19;1.75;;;1.00;;
55989;SDS011;41875;55.806;38.082;2022-10-31T04:14:22;0.68;;;0.68;;
55989;SDS011;41875;55.806;38.082;2022-10-31T04:16:55;2.13;;;1.10;;
55989;SDS011;41875;55.806;38.082;2022-10-31T04:19:32;1.30;;;0.73;;
55989;SDS011;41875;55.806;38.082;2022-10-31T04:22:02;1.33;;;0.68;;
55989;SDS011;41875;55.806;38.082;2022-10-31T04:24:31;2.53;;;0.70;;
55989;SDS011;41875;55.806;38.082;2022-10-31T04:26:59;4.55;;;0.70;;
55989;SDS011;41875;55.806;38.082;2022-10-31T04:29:29;1.10;;;0.70;;
55989;SDS011;41875;55.806;38.082;2022-10-31T04:36:54;0.77;;;0.68;;
55989;SDS011;41875;55.806;38.082;2022-10-31T04:39:24;3.33;;;1.10;;
55989;SDS011;41875;55.806;38.082;2022-10-31T04:42:13;1.92;;;0.90;;
55989;SDS011;41875;55.806;38.082;2022-10-31T04:47:09;4.57;;;1.27;;
55989;SDS011;41875;55.806;38.082;2022-10-31T04:52:07;1.88;;;0.80;;
55989;SDS011;41875;55.806;38.082;2022-10-31T04:54:40;4.00;;;1.20;;
55989;SDS011;41875;55.806;38.082;2022-10-31T04:57:29;2.67;;;1.20;;
55989;SDS011;41875;55.806;38.082;2022-10-31T05:00:01;1.25;;;0.98;;
55989;SDS011;41875;55.806;38.082;2022-10-31T05:04:58;1.60;;;0.90;;
55989;SDS011;41875;55.806;38.082;2022-10-31T05:07:28;1.23;;;0.77;;
55989;SDS011;41875;55.806;38.082;2022-10-31T05:12:26;2.25;;;1.13;;
55989;SDS011;41875;55.806;38.082;2022-10-31T05:15:07;2.47;;;0.98;;
55989;SDS011;41875;55.806;38.082;2022-10-31T05:17:55;1.42;;;0.85;;
55989;SDS011;41875;55.806;38.082;2022-10-31T05:23:16;2.10;;;0.93;;
55989;SDS011;41875;55.806;38.082;2022-10-31T05:25:48;1.58;;;1.10;;
55989;SDS011;41875;55.806;38.082;2022-10-31T05:28:17;4.43;;;1.15;;
55989;SDS011;41875;55.806;38.082;2022-10-31T05:30:49;1.25;;;0.77;;
55989;SDS011;41875;55.806;38.082;2022-10-31T05:33:20;0.82;;;0.65;;
55989;SDS011;41875;55.806;38.082;2022-10-31T05:36:04;1.90;;;0.90;;
55989;SDS011;41875;55.806;38.082;2022-10-31T05:38:55;4.88;;;1.20;;
55989;SDS011;41875;55.806;38.082;2022-10-31T05:41:28;4.22;;;1.30;;
55989;SDS011;41875;55.806;38.082;2022-10-31T05:44:04;1.30;;;0.90;;
55989;SDS011;41875;55.806;38.082;2022-10-31T05:46:46;2.25;;;1.02;;
55989;SDS011;41875;55.806;38.082;2022-10-31T05:49:33;2.43;;;1.10;;
55989;SDS011;41875;55.806;38.082;2022-10-31T05:52:21;2.85;;;0.70;;
55989;SDS011;41875;55.806;38.082;2022-10-31T05:55:03;3.58;;;1.05;;
55989;SDS011;41875;55.806;38.082;2022-10-31T05:57:33;1.90;;;1.02;;
55989;SDS011;41875;55.806;38.082;2022-10-31T06:00:03;2.28;;;0.93;;
55989;SDS011;41875;55.806;38.082;2022-10-31T06:02:46;2.22;;;0.80;;
55989;SDS011;41875;55.806;38.082;2022-10-31T06:05:24;2.58;;;0.85;;
55989;SDS011;41875;55.806;38.082;2022-10-31T06:07:54;1.90;;;1.00;;
55989;SDS011;41875;55.806;38.082;2022-10-31T06:10:26;4.00;;;1.10;;
55989;SDS011;41875;55.806;38.082;2022-10-31T06:12:57;3.40;;;0.98;;
55989;SDS011;41875;55.806;38.082;2022-10-31T06:15:35;2.97;;;0.93;;
55989;SDS011;41875;55.806;38.082;2022-10-31T06:18:06;1.23;;;0.77;;
55989;SDS011;41875;55.806;38.082;2022-10-31T06:20:45;0.70;;;0.63;;
55989;SDS011;41875;55.806;38.082;2022-10-31T06:23:15;1.35;;;0.70;;
55989;SDS011;41875;55.806;38.082;2022-10-31T06:25:48;5.45;;;1.70;;
55989;SDS011;41875;55.806;38.082;2022-10-31T06:28:18;1.45;;;1.08;;
55989;SDS011;41875;55.806;38.082;2022-10-31T06:30:54;2.38;;;1.00;;
55989;SDS011;41875;55.806;38.082;2022-10-31T06:33:23;2.15;;;1.10;;
55989;SDS011;41875;55.806;38.082;2022-10-31T06:35:56;1.20;;;1.02;;
55989;SDS011;41875;55.806;38.082;2022-10-31T06:38:25;1.75;;;0.90;;
55989;SDS011;41875;55.806;38.082;2022-10-31T06:40:56;3.30;;;1.10;;
55989;SDS011;41875;55.806;38.082;2022-10-31T06:43:27;1.95;;;1.20;;
55989;SDS011;41875;55.806;38.082;2022-10-31T06:46:15;2.67;;;1.17;;
55989;SDS011;41875;55.806;38.082;2022-10-31T06:49:01;2.42;;;1.20;;
55989;SDS011;41875;55.806;38.082;2022-10-31T06:51:48;1.75;;;1.20;;
55989;SDS011;41875;55.806;38.082;2022-10-31T06:54:18;3.40;;;0.90;;
55989;SDS011;41875;55.806;38.082;2022-10-31T06:56:46;1.55;;;0.90;;
55989;SDS011;41875;55.806;38.082;2022-10-31T07:02:03;1.38;;;0.90;;
55989;SDS011;41875;55.806;38.082;2022-10-31T07:04:32;1.15;;;0.85;;
55989;SDS011;41875;55.806;38.082;2022-10-31T07:07:01;2.08;;;1.00;;
55989;SDS011;41875;55.806;38.082;2022-10-31T07:09:30;1.13;;;0.65;;
55989;SDS011;41875;55.806;38.082;2022-10-31T07:12:02;1.38;;;0.80;;
55989;SDS011;41875;55.806;38.082;2022-10-31T07:14:37;1.70;;;1.10;;
55989;SDS011;41875;55.806;38.082;2022-10-31T07:17:06;2.40;;;1.08;;
55989;SDS011;41875;55.806;38.082;2022-10-31T07:19:38;4.43;;;1.85;;
55989;SDS011;41875;55.806;38.082;2022-10-31T07:22:08;2.33;;;1.15;;
55989;SDS011;41875;55.806;38.082;2022-10-31T07:24:39;3.63;;;1.17;;
55989;SDS011;41875;55.806;38.082;2022-10-31T07:27:28;3.15;;;1.55;;
55989;SDS011;41875;55.806;38.082;2022-10-31T07:29:58;2.05;;;1.30;;
55989;SDS011;41875;55.806;38.082;2022-10-31T07:32:36;1.95;;;1.02;;
55989;SDS011;41875;55.806;38.082;2022-10-31T07:35:06;3.50;;;1.50;;
55989;SDS011;41875;55.806;38.082;2022-10-31T07:37:53;2.97;;;1.25;;
55989;SDS011;41875;55.806;38.082;2022-10-31T07:40:22;2.45;;;1.30;;
55989;SDS011;41875;55.806;38.082;2022-10-31T07:42:52;1.83;;;1.10;;
55989;SDS011;41875;55.806;38.082;2022-10-31T07:45:40;3.20;;;1.20;;
55989;SDS011;41875;55.806;38.082;2022-10-31T07:48:35;2.53;;;1.30;;
55989;SDS011;41875;55.806;38.082;2022-10-31T07:51:22;2.00;;;1.20;;
55989;SDS011;41875;55.806;38.082;2022-10-31T07:54:09;2.87;;;1.33;;
55989;SDS011;41875;55.806;38.082;2022-10-31T07:56:38;4.22;;;1.70;;
55989;SDS011;41875;55.806;38.082;2022-10-31T07:59:06;2.60;;;1.48;;
55989;SDS011;41875;55.806;38.082;2022-10-31T08:01:36;2.95;;;1.50;;
55989;SDS011;41875;55.806;38.082;2022-10-31T08:04:28;3.40;;;1.35;;
55989;SDS011;41875;55.806;38.082;2022-10-31T08:07:19;4.60;;;1.00;;
55989;SDS011;41875;55.806;38.082;2022-10-31T08:09:54;1.58;;;0.90;;
55989;SDS011;41875;55.806;38.082;2022-10-31T08:12:28;4.60;;;1.90;;
55989;SDS011;41875;55.806;38.082;2022-10-31T08:14:57;2.50;;;1.50;;
55989;SDS011;41875;55.806;38.082;2022-10-31T08:17:28;2.33;;;1.20;;
55989;SDS011;41875;55.806;38.082;2022-10-31T08:19:59;2.50;;;1.33;;
55989;SDS011;41875;55.806;38.082;2022-10-31T08:22:33;3.63;;;1.80;;
55989;SDS011;41875;55.806;38.082;2022-10-31T08:25:09;3.20;;;1.50;;
55989;SDS011;41875;55.806;38.082;2022-10-31T08:27:38;3.20;;;1.48;;
55989;SDS011;41875;55.806;38.082;2022-10-31T08:30:15;1.45;;;0.90;;
55989;SDS011;41875;55.806;38.082;2022-10-31T08:33:00;3.65;;;1.20;;
55989;SDS011;41875;55.806;38.082;2022-10-31T08:35:48;4.22;;;1.20;;
55989;SDS011;41875;55.806;38.082;2022-10-31T08:38:36;3.83;;;1.48;;
55989;SDS011;41875;55.806;38.082;2022-10-31T08:41:08;2.63;;;1.20;;
55989;SDS011;41875;55.806;38.082;2022-10-31T08:43:37;2.00;;;1.00;;
55989;SDS011;41875;55.806;38.082;2022-10-31T08:46:06;3.25;;;1.17;;
55989;SDS011;41875;55.806;38.082;2022-10-31T08:48:37;3.03;;;1.35;;
55989;SDS011;41875;55.806;38.082;2022-10-31T08:51:06;2.08;;;1.20;;
55989;SDS011;41875;55.806;38.082;2022-10-31T08:53:35;2.47;;;1.10;;
55989;SDS011;41875;55.806;38.082;2022-10-31T08:56:23;3.72;;;1.73;;
55989;SDS011;41875;55.806;38.082;2022-10-31T08:58:56;2.85;;;1.15;;
55989;SDS011;41875;55.806;38.082;2022-10-31T09:01:51;2.72;;;1.13;;
55989;SDS011;41875;55.806;38.082;2022-10-31T09:04:22;2.92;;;1.13;;
55989;SDS011;41875;55.806;38.082;2022-10-31T09:06:50;2.08;;;0.88;;
55989;SDS011;41875;55.806;38.082;2022-10-31T09:09:39;2.83;;;1.25;;
55989;SDS011;41875;55.806;38.082;2022-10-31T09:12:08;3.53;;;1.42;;
55989;SDS011;41875;55.806;38.082;2022-10-31T09:15:06;3.33;;;1.17;;
55989;SDS011;41875;55.806;38.082;2022-10-31T09:17:45;1.38;;;0.75;;
55989;SDS011;41875;55.806;38.082;2022-10-31T09:20:24;4.72;;;1.55;;
55989;SDS011;41875;55.806;38.082;2022-10-31T09:22:55;2.58;;;1.50;;
55989;SDS011;41875;55.806;38.082;2022-10-31T09:25:25;2.20;;;1.55;;
55989;SDS011;41875;55.806;38.082;2022-10-31T09:28:15;4.57;;;1.98;;
55989;SDS011;41875;55.806;38.082;2022-10-31T09:30:45;2.55;;;1.35;;
55989;SDS011;41875;55.806;38.082;2022-10-31T09:33:31;3.20;;;1.50;;
55989;SDS011;41875;55.806;38.082;2022-10-31T09:36:21;3.72;;;1.30;;
55989;SDS011;41875;55.806;38.082;2022-10-31T09:38:51;2.53;;;1.20;;
55989;SDS011;41875;55.806;38.082;2022-10-31T09:41:21;2.95;;;1.30;;
55989;SDS011;41875;55.806;38.082;2022-10-31T09:43:58;2.93;;;1.30;;
55989;SDS011;41875;55.806;38.082;2022-10-31T09:46:39;4.65;;;1.67;;
55989;SDS011;41875;55.806;38.082;2022-10-31T09:49:24;3.45;;;1.50;;
55989;SDS011;41875;55.806;38.082;2022-10-31T09:52:11;2.63;;;1.20;;
55989;SDS011;41875;55.806;38.082;2022-10-31T09:54:49;3.42;;;1.40;;
55989;SDS011;41875;55.806;38.082;2022-10-31T09:57:23;4.07;;;1.55;;
55989;SDS011;41875;55.806;38.082;2022-10-31T09:59:57;3.20;;;1.80;;
55989;SDS011;41875;55.806;38.082;2022-10-31T10:02:31;4.05;;;1.25;;
55989;SDS011;41875;55.806;38.082;2022-10-31T10:05:04;4.65;;;1.70;;
55989;SDS011;41875;55.806;38.082;2022-10-31T10:07:44;4.38;;;1.25;;
55989;SDS011;41875;55.806;38.082;2022-10-31T10:10:59;7.22;;;1.98;;
55989;SDS011;41875;55.806;38.082;2022-10-31T10:13:57;4.53;;;1.60;;
55989;SDS011;41875;55.806;38.082;2022-10-31T10:16:47;4.32;;;2.00;;
55989;SDS011;41875;55.806;38.082;2022-10-31T10:19:33;6.10;;;2.30;;
55989;SDS011;41875;55.806;38.082;2022-10-31T10:22:15;4.63;;;1.90;;
55989;SDS011;41875;55.806;38.082;2022-10-31T10:27:33;2.20;;;1.25;;
55989;SDS011;41875;55.806;38.082;2022-10-31T10:30:15;4.80;;;1.50;;
55989;SDS011;41875;55.806;38.082;2022-10-31T10:32:46;2.60;;;1.63;;
55989;SDS011;41875;55.806;38.082;2022-10-31T10:35:20;3.03;;;1.73;;
55989;SDS011;41875;55.806;38.082;2022-10-31T10:37:55;3.00;;;1.42;;
55989;SDS011;41875;55.806;38.082;2022-10-31T10:40:31;2.15;;;1.02;;
55989;SDS011;41875;55.806;38.082;2022-10-31T10:43:19;3.30;;;1.52;;
55989;SDS011;41875;55.806;38.082;2022-10-31T10:45:51;2.25;;;1.20;;
55989;SDS011;41875;55.806;38.082;2022-10-31T10:48:45;2.88;;;1.55;;
55989;SDS011;41875;55.806;38.082;2022-10-31T10:51:22;2.65;;;1.45;;
55989;SDS011;41875;55.806;38.082;2022-10-31T10:57:19;2.83;;;0.85;;
55989;SDS011;41875;55.806;38.082;2022-10-31T10:59:54;1.05;;;0.80;;
55989;SDS011;41875;55.806;38.082;2022-10-31T11:04:53;2.20;;;0.88;;
55989;SDS011;41875;55.806;38.082;2022-10-31T11:07:23;1.25;;;0.70;;
55989;SDS011;41875;55.806;38.082;2022-10-31T11:12:32;1.95;;;0.93;;
55989;SDS011;41875;55.806;38.082;2022-10-31T11:15:05;3.55;;;0.73;;
55989;SDS011;41875;55.806;38.082;2022-10-31T11:17:46;0.75;;;0.60;;
55989;SDS011;41875;55.806;38.082;2022-10-31T11:20:25;0.43;;;0.43;;
55989;SDS011;41875;55.806;38.082;2022-10-31T11:23:10;0.70;;;0.60;;
55989;SDS011;41875;55.806;38.082;2022-10-31T11:25:49;0.47;;;0.43;;
55989;SDS011;41875;55.806;38.082;2022-10-31T11:28:21;2.00;;;0.70;;
55989;SDS011;41875;55.806;38.082;2022-10-31T11:30:54;1.20;;;0.60;;
55989;SDS011;41875;55.806;38.082;2022-10-31T11:33:26;1.83;;;0.70;;
55989;SDS011;41875;55.806;38.082;2022-10-31T11:38:44;0.80;;;0.60;;
55989;SDS011;41875;55.806;38.082;2022-10-31T11:41:14;0.85;;;0.50;;
55989;SDS011;41875;55.806;38.082;2022-10-31T11:43:55;0.75;;;0.50;;
55989;SDS011;41875;55.806;38.082;2022-10-31T11:46:30;0.90;;;0.63;;
55989;SDS011;41875;55.806;38.082;2022-10-31T11:49:19;0.80;;;0.60;;
55989;SDS011;41875;55.806;38.082;2022-10-31T11:51:55;0.55;;;0.50;;
55989;SDS011;41875;55.806;38.082;2022-10-31T11:54:29;0.50;;;0.50;;
55989;SDS011;41875;55.806;38.082;2022-10-31T11:57:07;1.23;;;0.73;;
55989;SDS011;41875;55.806;38.082;2022-10-31T11:59:55;1.20;;;0.70;;
55989;SDS011;41875;55.806;38.082;2022-10-31T12:02:25;1.35;;;0.80;;
55989;SDS011;41875;55.806;38.082;2022-10-31T12:04:57;1.50;;;0.80;;
55989;SDS011;41875;55.806;38.082;2022-10-31T12:07:30;0.68;;;0.50;;
55989;SDS011;41875;55.806;38.082;2022-10-31T12:10:02;1.50;;;0.80;;
55989;SDS011;41875;55.806;38.082;2022-10-31T12:12:52;1.30;;;0.70;;
55989;SDS011;41875;55.806;38.082;2022-10-31T12:15:45;0.40;;;0.40;;
55989;SDS011;41875;55.806;38.082;2022-10-31T12:18:42;0.50;;;0.50;;
55989;SDS011;41875;55.806;38.082;2022-10-31T12:21:52;0.52;;;0.52;;
55989;SDS011;41875;55.806;38.082;2022-10-31T12:24:43;0.88;;;0.57;;
55989;SDS011;41875;55.806;38.082;2022-10-31T12:27:27;0.75;;;0.60;;
55989;SDS011;41875;55.806;38.082;2022-10-31T12:30:11;1.30;;;0.85;;
55989;SDS011;41875;55.806;38.082;2022-10-31T12:33:00;0.82;;;0.70;;
55989;SDS011;41875;55.806;38.082;2022-10-31T12:35:52;4.03;;;0.98;;
55989;SDS011;41875;55.806;38.082;2022-10-31T12:38:34;0.90;;;0.60;;
55989;SDS011;41875;55.806;38.082;2022-10-31T12:47:39;0.77;;;0.70;;
55989;SDS011;41875;55.806;38.082;2022-10-31T12:50:35;1.92;;;0.75;;
55989;SDS011;41875;55.806;38.082;2022-10-31T12:53:22;0.80;;;0.65;;
55989;SDS011;41875;55.806;38.082;2022-10-31T12:56:09;1.00;;;0.80;;
55989;SDS011;41875;55.806;38.082;2022-10-31T12:58:49;0.90;;;0.60;;
55989;SDS011;41875;55.806;38.082;2022-10-31T13:01:30;0.60;;;0.60;;
55989;SDS011;41875;55.806;38.082;2022-10-31T13:04:14;1.38;;;0.65;;
55989;SDS011;41875;55.806;38.082;2022-10-31T13:07:25;2.30;;;0.90;;
55989;SDS011;41875;55.806;38.082;2022-10-31T13:10:14;3.15;;;1.05;;
55989;SDS011;41875;55.806;38.082;2022-10-31T13:15:18;2.63;;;0.82;;
55989;SDS011;41875;55.806;38.082;2022-10-31T13:17:51;2.50;;;0.98;;
55989;SDS011;41875;55.806;38.082;2022-10-31T13:23:37;1.40;;;0.85;;
55989;SDS011;41875;55.806;38.082;2022-10-31T13:29:16;1.67;;;0.77;;
55989;SDS011;41875;55.806;38.082;2022-10-31T13:31:52;2.45;;;0.90;;
55989;SDS011;41875;55.806;38.082;2022-10-31T13:34:24;2.10;;;1.15;;
55989;SDS011;41875;55.806;38.082;2022-10-31T13:37:20;0.88;;;0.75;;
55989;SDS011;41875;55.806;38.082;2022-10-31T13:43:34;2.38;;;0.93;;
55989;SDS011;41875;55.806;38.082;2022-10-31T13:46:49;1.55;;;0.88;;
55989;SDS011;41875;55.806;38.082;2022-10-31T13:50:03;4.90;;;1.77;;
55989;SDS011;41875;55.806;38.082;2022-10-31T13:56:14;1.65;;;0.93;;
55989;SDS011;41875;55.806;38.082;2022-10-31T13:58:57;1.02;;;0.68;;
55989;SDS011;41875;55.806;38.082;2022-10-31T14:01:29;2.38;;;0.95;;
55989;SDS011;41875;55.806;38.082;2022-10-31T14:04:00;1.17;;;0.80;;
55989;SDS011;41875;55.806;38.082;2022-10-31T14:06:49;1.30;;;0.82;;
55989;SDS011;41875;55.806;38.082;2022-10-31T14:09:26;1.43;;;0.90;;
55989;SDS011;41875;55.806;38.082;2022-10-31T14:12:00;1.48;;;0.85;;
55989;SDS011;41875;55.806;38.082;2022-10-31T14:14:33;2.05;;;1.08;;
55989;SDS011;41875;55.806;38.082;2022-10-31T14:17:18;1.73;;;1.05;;
55989;SDS011;41875;55.806;38.082;2022-10-31T14:20:00;0.88;;;0.70;;
55989;SDS011;41875;55.806;38.082;2022-10-31T14:22:31;1.73;;;0.73;;
55989;SDS011;41875;55.806;38.082;2022-10-31T14:27:59;2.78;;;0.90;;
55989;SDS011;41875;55.806;38.082;2022-10-31T14:30:29;1.27;;;0.77;;
55989;SDS011;41875;55.806;38.082;2022-10-31T14:32:59;1.52;;;0.90;;
55989;SDS011;41875;55.806;38.082;2022-10-31T14:35:36;1.92;;;0.70;;
55989;SDS011;41875;55.806;38.082;2022-10-31T14:38:22;1.58;;;0.70;;
55989;SDS011;41875;55.806;38.082;2022-10-31T14:41:18;2.28;;;0.98;;
55989;SDS011;41875;55.806;38.082;2022-10-31T14:46:54;1.05;;;0.80;;
55989;SDS011;41875;55.806;38.082;2022-10-31T14:49:37;1.63;;;0.90;;
55989;SDS011;41875;55.806;38.082;2022-10-31T14:52:19;2.42;;;0.98;;
55989;SDS011;41875;55.806;38.082;2022-10-31T14:54:49;2.08;;;0.80;;
55989;SDS011;41875;55.806;38.082;2022-10-31T14:57:23;1.75;;;0.63;;
55989;SDS011;41875;55.806;38.082;2022-10-31T14:59:55;1.70;;;0.80;;
55989;SDS011;41875;55.806;38.082;2022-10-31T15:02:33;2.00;;;0.70;;
55989;SDS011;41875;55.806;38.082;2022-10-31T15:05:06;4.47;;;1.30;;
55989;SDS011;41875;55.806;38.082;2022-10-31T15:07:47;1.25;;;0.73;;
55989;SDS011;41875;55.806;38.082;2022-10-31T15:10:21;3.13;;;1.10;;
55989;SDS011;41875;55.806;38.082;2022-10-31T15:12:53;0.95;;;0.60;;
55989;SDS011;41875;55.806;38.082;2022-10-31T15:15:22;1.33;;;0.73;;
55989;SDS011;41875;55.806;38.082;2022-10-31T15:17:53;2.60;;;0.70;;
55989;SDS011;41875;55.806;38.082;2022-10-31T15:20:25;2.88;;;0.82;;
55989;SDS011;41875;55.806;38.082;2022-10-31T15:27:03;1.40;;;0.88;;
55989;SDS011;41875;55.806;38.082;2022-10-31T15:29:46;2.10;;;0.90;;
55989;SDS011;41875;55.806;38.082;2022-10-31T15:32:18;2.53;;;0.98;;
55989;SDS011;41875;55.806;38.082;2022-10-31T15:34:51;2.05;;;0.85;;
55989;SDS011;41875;55.806;38.082;2022-10-31T15:37:22;1.50;;;0.80;;
55989;SDS011;41875;55.806;38.082;2022-10-31T15:39:53;2.17;;;0.80;;
55989;SDS011;41875;55.806;38.082;2022-10-31T15:42:27;2.15;;;1.15;;
55989;SDS011;41875;55.806;38.082;2022-10-31T15:45:02;1.83;;;0.90;;
55989;SDS011;41875;55.806;38.082;2022-10-31T15:47:35;2.35;;;1.05;;
55989;SDS011;41875;55.806;38.082;2022-10-31T15:50:06;2.00;;;0.90;;
55989;SDS011;41875;55.806;38.082;2022-10-31T15:52:52;2.00;;;0.73;;
55989;SDS011;41875;55.806;38.082;2022-10-31T15:55:25;2.67;;;1.00;;
55989;SDS011;41875;55.806;38.082;2022-10-31T15:57:58;1.00;;;0.80;;
55989;SDS011;41875;55.806;38.082;2022-10-31T16:00:33;2.40;;;1.20;;
55989;SDS011;41875;55.806;38.082;2022-10-31T16:03:07;2.25;;;1.10;;
55989;SDS011;41875;55.806;38.082;2022-10-31T16:05:51;1.25;;;0.80;;
55989;SDS011;41875;55.806;38.082;2022-10-31T16:08:25;1.27;;;0.85;;
55989;SDS011;41875;55.806;38.082;2022-10-31T16:11:02;1.85;;;1.15;;
55989;SDS011;41875;55.806;38.082;2022-10-31T16:14:02;2.22;;;1.00;;
55989;SDS011;41875;55.806;38.082;2022-10-31T16:16:41;2.13;;;1.25;;
55989;SDS011;41875;55.806;38.082;2022-10-31T16:19:15;1.90;;;0.80;;
55989;SDS011;41875;55.806;38.082;2022-10-31T16:21:49;2.88;;;1.10;;
55989;SDS011;41875;55.806;38.082;2022-10-31T16:24:24;3.05;;;1.70;;
55989;SDS011;41875;55.806;38.082;2022-10-31T16:26:57;2.63;;;1.48;;
55989;SDS011;41875;55.806;38.082;2022-10-31T16:29:38;1.92;;;1.15;;
55989;SDS011;41875;55.806;38.082;2022-10-31T16:32:32;1.35;;;0.70;;
55989;SDS011;41875;55.806;38.082;2022-10-31T16:35:18;2.40;;;1.15;;
55989;SDS011;41875;55.806;38.082;2022-10-31T16:37:53;1.55;;;1.23;;
55989;SDS011;41875;55.806;38.082;2022-10-31T16:40:22;2.15;;;1.33;;
55989;SDS011;41875;55.806;38.082;2022-10-31T16:42:51;3.38;;;1.50;;
55989;SDS011;41875;55.806;38.082;2022-10-31T16:45:21;1.27;;;0.75;;
55989;SDS011;41875;55.806;38.082;2022-10-31T16:47:55;2.00;;;0.93;;